sensor_id;sensor_type;location;lat;lon;timestamp;pressure;altitude;pressure_sealevel;temperature;humidity
32033;BME280;31720;52.638;9.216;2023-01-29T00:01:01;102559.06;;;0.89;100.00
32033;BME280;31720;52.638;9.216;2023-01-29T00:04:04;102549.66;;;0.94;100.00
32033;BME280;31720;52.638;9.216;2023-01-29T00:07:05;102541.75;;;0.85;100.00
32033;BME280;31720;52.638;9.216;2023-01-29T00:10:09;102530.53;;;0.86;100.00
32033;BME280;31720;52.638;9.216;2023-01-29T00:13:10;102541.88;;;0.92;100.00
32033;BME280;31720;52.638;9.216;2023-01-29T00:16:11;102530.66;;;0.93;100.00
32033;BME280;31720;52.638;9.216;2023-01-29T00:19:14;102528.16;;;0.99;100.00
32033;BME280;31720;52.638;9.216;2023-01-29T00:22:16;102534.97;;;0.94;100.00
32033;BME280;31720;52.638;9.216;2023-01-29T00:25:17;102539.22;;;0.89;100.00
32033;BME280;31720;52.638;9.216;2023-01-29T00:28:19;102537.41;;;0.82;100.00
32033;BME280;31720;52.638;9.216;2023-01-29T00:31:21;102542.66;;;0.87;100.00
32033;BME280;31720;52.638;9.216;2023-01-29T00:34:24;102536.56;;;0.86;100.00
32033;BME280;31720;52.638;9.216;2023-01-29T00:37:25;102535.69;;;0.83;100.00
32033;BME280;31720;52.638;9.216;2023-01-29T00:40:27;102538.28;;;0.84;100.00
32033;BME280;31720;52.638;9.216;2023-01-29T00:43:48;102530.59;;;0.89;100.00
32033;BME280;31720;52.638;9.216;2023-01-29T00:47:07;102533.97;;;0.83;100.00
32033;BME280;31720;52.638;9.216;2023-01-29T00:50:30;102531.31;;;0.79;100.00
32033;BME280;31720;52.638;9.216;2023-01-29T00:53:32;102530.56;;;0.87;100.00
32033;BME280;31720;52.638;9.216;2023-01-29T00:56:35;102523.75;;;0.92;100.00
32033;BME280;31720;52.638;9.216;2023-01-29T00:59:36;102512.50;;;0.90;100.00
32033;BME280;31720;52.638;9.216;2023-01-29T01:02:38;102509.91;;;0.90;100.00
32033;BME280;31720;52.638;9.216;2023-01-29T01:06:06;102501.31;;;0.91;100.00
32033;BME280;31720;52.638;9.216;2023-01-29T01:09:08;102495.41;;;1.01;100.00
32033;BME280;31720;52.638;9.216;2023-01-29T01:12:28;102483.13;;;0.87;100.00
32033;BME280;31720;52.638;9.216;2023-01-29T01:15:33;102489.97;;;0.83;100.00
32033;BME280;31720;52.638;9.216;2023-01-29T01:18:35;102493.22;;;0.70;100.00
32033;BME280;31720;52.638;9.216;2023-01-29T01:21:38;102504.56;;;0.78;100.00
32033;BME280;31720;52.638;9.216;2023-01-29T01:24:39;102495.06;;;0.79;100.00
32033;BME280;31720;52.638;9.216;2023-01-29T01:27:41;102497.66;;;0.79;100.00
32033;BME280;31720;52.638;9.216;2023-01-29T01:30:42;102496.00;;;0.84;100.00
32033;BME280;31720;52.638;9.216;2023-01-29T01:33:43;102496.00;;;0.82;100.00
32033;BME280;31720;52.638;9.216;2023-01-29T01:36:46;102488.31;;;0.87;100.00
32033;BME280;31720;52.638;9.216;2023-01-29T01:39:47;102489.13;;;0.84;100.00
32033;BME280;31720;52.638;9.216;2023-01-29T01:42:51;102494.97;;;0.72;100.00
32033;BME280;31720;52.638;9.216;2023-01-29T01:45:53;102507.81;;;0.66;100.00
32033;BME280;31720;52.638;9.216;2023-01-29T01:48:57;102507.81;;;0.66;100.00
32033;BME280;31720;52.638;9.216;2023-01-29T01:52:01;102506.22;;;0.73;100.00
32033;BME280;31720;52.638;9.216;2023-01-29T01:55:04;102516.44;;;0.67;100.00
32033;BME280;31720;52.638;9.216;2023-01-29T01:58:09;102507.81;;;0.66;100.00
32033;BME280;31720;52.638;9.216;2023-01-29T02:01:12;102506.16;;;0.70;100.00
32033;BME280;31720;52.638;9.216;2023-01-29T02:04:15;102513.03;;;0.69;100.00
32033;BME280;31720;52.638;9.216;2023-01-29T02:07:39;102524.25;;;0.68;100.00
32033;BME280;31720;52.638;9.216;2023-01-29T02:11:00;102516.28;;;0.58;100.00
32033;BME280;31720;52.638;9.216;2023-01-29T02:14:01;102523.19;;;0.59;100.00
32033;BME280;31720;52.638;9.216;2023-01-29T02:17:03;102515.44;;;0.59;100.00
32033;BME280;31720;52.638;9.216;2023-01-29T02:20:11;102519.00;;;0.64;100.00
32033;BME280;31720;52.638;9.216;2023-01-29T02:23:44;102514.72;;;0.67;100.00
32033;BME280;31720;52.638;9.216;2023-01-29T02:27:02;102521.72;;;0.73;100.00
32033;BME280;31720;52.638;9.216;2023-01-29T02:30:10;102529.38;;;0.67;100.00
32033;BME280;31720;52.638;9.216;2023-01-29T02:33:22;102525.06;;;0.66;100.00
32033;BME280;31720;52.638;9.216;2023-01-29T02:36:31;102522.47;;;0.66;100.00
32033;BME280;31720;52.638;9.216;2023-01-29T02:39:39;102528.56;;;0.69;100.00
32033;BME280;31720;52.638;9.216;2023-01-29T02:42:50;102523.41;;;0.71;100.00
32033;BME280;31720;52.638;9.216;2023-01-29T02:46:00;102524.25;;;0.70;100.00
32033;BME280;31720;52.638;9.216;2023-01-29T02:49:08;102521.72;;;0.73;100.00
32033;BME280;31720;52.638;9.216;2023-01-29T02:52:14;102520.03;;;0.76;100.00
32033;BME280;31720;52.638;9.216;2023-01-29T02:55:22;102521.06;;;0.86;100.00
32033;BME280;31720;52.638;9.216;2023-01-29T02:58:28;102514.13;;;0.85;100.00
32033;BME280;31720;52.638;9.216;2023-01-29T03:01:34;102508.94;;;0.84;100.00
32033;BME280;31720;52.638;9.216;2023-01-29T03:04:43;102508.91;;;0.81;100.00
32033;BME280;31720;52.638;9.216;2023-01-29T03:07:50;102500.41;;;0.89;100.00
32033;BME280;31720;52.638;9.216;2023-01-29T03:10:56;102498.59;;;0.85;100.00
32033;BME280;31720;52.638;9.216;2023-01-29T03:14:03;102496.94;;;0.89;100.00
32033;BME280;31720;52.638;9.216;2023-01-29T03:17:08;102498.59;;;0.85;100.00
32033;BME280;31720;52.638;9.216;2023-01-29T03:20:13;102494.28;;;0.84;100.00
32033;BME280;31720;52.638;9.216;2023-01-29T03:23:18;102481.47;;;0.92;100.00
32033;BME280;31720;52.638;9.216;2023-01-29T03:26:24;102477.06;;;0.86;100.00
32033;BME280;31720;52.638;9.216;2023-01-29T03:29:44;102473.66;;;0.87;100.00
32033;BME280;31720;52.638;9.216;2023-01-29T03:33:08;102475.38;;;0.87;100.00
32033;BME280;31720;52.638;9.216;2023-01-29T03:36:15;102477.03;;;0.85;100.00
32033;BME280;31720;52.638;9.216;2023-01-29T03:39:18;102468.41;;;0.84;100.00
32033;BME280;31720;52.638;9.216;2023-01-29T03:42:23;102458.84;;;0.80;100.00
32033;BME280;31720;52.638;9.216;2023-01-29T03:45:33;102447.63;;;0.78;100.00
32033;BME280;31720;52.638;9.216;2023-01-29T03:48:49;102441.59;;;0.78;100.00
32033;BME280;31720;52.638;9.216;2023-01-29T03:51:58;102444.25;;;0.84;100.00
32033;BME280;31720;52.638;9.216;2023-01-29T03:55:09;102433.06;;;0.85;100.00
32033;BME280;31720;52.638;9.216;2023-01-29T03:58:19;102427.94;;;0.91;100.00
32033;BME280;31720;52.638;9.216;2023-01-29T04:01:27;102419.28;;;0.87;100.00
32033;BME280;31720;52.638;9.216;2023-01-29T04:04:32;102407.16;;;0.83;100.00
32033;BME280;31720;52.638;9.216;2023-01-29T04:07:36;102397.72;;;0.87;100.00
32033;BME280;31720;52.638;9.216;2023-01-29T04:10:40;102391.72;;;0.91;100.00
32033;BME280;31720;52.638;9.216;2023-01-29T04:13:44;102395.94;;;0.83;100.00
32033;BME280;31720;52.638;9.216;2023-01-29T04:16:48;102403.84;;;0.92;100.00
32033;BME280;31720;52.638;9.216;2023-01-29T04:19:53;102390.03;;;0.91;100.00
32033;BME280;31720;52.638;9.216;2023-01-29T04:22:54;102398.59;;;0.89;100.00
32033;BME280;31720;52.638;9.216;2023-01-29T04:29:33;102395.13;;;0.87;100.00
32033;BME280;31720;52.638;9.216;2023-01-29T04:32:48;102377.78;;;0.80;100.00
32033;BME280;31720;52.638;9.216;2023-01-29T04:36:06;102373.47;;;0.82;100.00
32033;BME280;31720;52.638;9.216;2023-01-29T04:39:17;102362.41;;;0.92;100.00
32033;BME280;31720;52.638;9.216;2023-01-29T04:42:25;102373.47;;;0.82;100.00
32033;BME280;31720;52.638;9.216;2023-01-29T04:45:35;102382.97;;;0.80;100.00
32033;BME280;31720;52.638;9.216;2023-01-29T04:48:49;102384.69;;;0.81;100.00
32033;BME280;31720;52.638;9.216;2023-01-29T04:51:57;102382.13;;;0.82;100.00
32033;BME280;31720;52.638;9.216;2023-01-29T04:55:04;102377.78;;;0.78;100.00
32033;BME280;31720;52.638;9.216;2023-01-29T04:58:11;102386.47;;;0.85;100.00
32033;BME280;31720;52.638;9.216;2023-01-29T05:01:15;102382.09;;;0.81;100.00
32033;BME280;31720;52.638;9.216;2023-01-29T05:04:19;102382.13;;;0.82;100.00
32033;BME280;31720;52.638;9.216;2023-01-29T05:07:23;102375.25;;;0.83;100.00
32033;BME280;31720;52.638;9.216;2023-01-29T05:10:26;102365.78;;;0.86;100.00
32033;BME280;31720;52.638;9.216;2023-01-29T05:13:29;102362.38;;;0.87;100.00
32033;BME280;31720;52.638;9.216;2023-01-29T05:16:34;102370.81;;;0.75;100.00
32033;BME280;31720;52.638;9.216;2023-01-29T05:19:41;102377.66;;;0.72;100.00
32033;BME280;31720;52.638;9.216;2023-01-29T05:22:44;102378.59;;;0.77;100.00
32033;BME280;31720;52.638;9.216;2023-01-29T05:25:48;102387.22;;;0.76;100.00
32033;BME280;31720;52.638;9.216;2023-01-29T05:28:49;102385.44;;;0.72;100.00
32033;BME280;31720;52.638;9.216;2023-01-29T05:31:50;102376.84;;;0.73;100.00
32033;BME280;31720;52.638;9.216;2023-01-29T05:34:51;102383.78;;;0.77;100.00
32033;BME280;31720;52.638;9.216;2023-01-29T05:37:54;102399.34;;;0.80;100.00
32033;BME280;31720;52.638;9.216;2023-01-29T05:40:57;102405.44;;;0.84;100.00
32033;BME280;31720;52.638;9.216;2023-01-29T05:43:58;102391.63;;;0.83;100.00
32033;BME280;31720;52.638;9.216;2023-01-29T05:47:00;102381.34;;;0.88;100.00
32033;BME280;31720;52.638;9.216;2023-01-29T05:50:01;102372.78;;;0.92;100.00
32033;BME280;31720;52.638;9.216;2023-01-29T05:53:04;102381.31;;;0.86;100.00
32033;BME280;31720;52.638;9.216;2023-01-29T05:56:06;102379.63;;;0.88;100.00
32033;BME280;31720;52.638;9.216;2023-01-29T05:59:07;102380.34;;;0.78;100.00
32033;BME280;31720;52.638;9.216;2023-01-29T06:02:09;102393.31;;;0.81;100.00
32033;BME280;31720;52.638;9.216;2023-01-29T06:05:10;102391.66;;;0.85;100.00
32033;BME280;31720;52.638;9.216;2023-01-29T06:08:13;102396.88;;;0.88;100.00
32033;BME280;31720;52.638;9.216;2023-01-29T06:11:14;102390.78;;;0.86;100.00
32033;BME280;31720;52.638;9.216;2023-01-29T06:14:17;102387.38;;;0.88;100.00
32033;BME280;31720;52.638;9.216;2023-01-29T06:17:18;102384.88;;;0.94;100.00
32033;BME280;31720;52.638;9.216;2023-01-29T06:20:20;102374.59;;;1.00;100.00
32033;BME280;31720;52.638;9.216;2023-01-29T06:23:23;102377.25;;;1.05;100.00
32033;BME280;31720;52.638;9.216;2023-01-29T06:26:24;102372.03;;;1.00;100.00
32033;BME280;31720;52.638;9.216;2023-01-29T06:29:25;102375.44;;;0.99;100.00
32033;BME280;31720;52.638;9.216;2023-01-29T06:32:27;102371.16;;;1.01;100.00
32033;BME280;31720;52.638;9.216;2023-01-29T06:35:28;102379.84;;;1.05;100.00
32033;BME280;31720;52.638;9.216;2023-01-29T06:38:31;102376.44;;;1.11;100.00
32033;BME280;31720;52.638;9.216;2023-01-29T06:41:33;102385.94;;;1.13;100.00
32033;BME280;31720;52.638;9.216;2023-01-29T06:44:34;102386.88;;;1.15;100.00
32033;BME280;31720;52.638;9.216;2023-01-29T06:47:35;102393.66;;;1.07;100.00
32033;BME280;31720;52.638;9.216;2023-01-29T06:50:37;102400.56;;;1.05;100.00
32033;BME280;31720;52.638;9.216;2023-01-29T06:53:39;102386.69;;;1.01;100.00
32033;BME280;31720;52.638;9.216;2023-01-29T06:56:41;102387.66;;;1.10;100.00
32033;BME280;31720;52.638;9.216;2023-01-29T06:59:42;102397.84;;;0.96;100.00
32033;BME280;31720;52.638;9.216;2023-01-29T07:02:43;102404.81;;;1.01;100.00
32033;BME280;31720;52.638;9.216;2023-01-29T07:05:49;102404.81;;;1.01;100.00
32033;BME280;31720;52.638;9.216;2023-01-29T07:08:52;102397.91;;;1.02;100.00
32033;BME280;31720;52.638;9.216;2023-01-29T07:11:53;102373.81;;;1.05;100.00
32033;BME280;31720;52.638;9.216;2023-01-29T07:14:54;102369.50;;;1.08;100.00
32033;BME280;31720;52.638;9.216;2023-01-29T07:17:57;102371.25;;;1.09;100.00
32033;BME280;31720;52.638;9.216;2023-01-29T07:21:02;102391.13;;;1.10;100.00
32033;BME280;31720;52.638;9.216;2023-01-29T07:24:06;102387.63;;;1.07;100.00
32033;BME280;31720;52.638;9.216;2023-01-29T07:27:07;102379.84;;;1.08;100.00
32033;BME280;31720;52.638;9.216;2023-01-29T07:30:09;102361.69;;;1.04;100.00
32033;BME280;31720;52.638;9.216;2023-01-29T07:33:11;102352.13;;;0.96;100.00
32033;BME280;31720;52.638;9.216;2023-01-29T07:36:13;102365.03;;;0.95;100.00
32033;BME280;31720;52.638;9.216;2023-01-29T07:39:16;102361.56;;;0.91;100.00
32033;BME280;31720;52.638;9.216;2023-01-29T07:42:17;102354.66;;;0.93;100.00
32033;BME280;31720;52.638;9.216;2023-01-29T07:45:18;102352.06;;;0.92;100.00
32033;BME280;31720;52.638;9.216;2023-01-29T07:48:20;102353.84;;;0.96;100.00
32033;BME280;31720;52.638;9.216;2023-01-29T07:51:21;102348.56;;;0.87;100.00
32033;BME280;31720;52.638;9.216;2023-01-29T07:54:24;102360.69;;;0.92;100.00
32033;BME280;31720;52.638;9.216;2023-01-29T07:57:25;102346.03;;;0.91;100.00
32033;BME280;31720;52.638;9.216;2023-01-29T08:00:27;102347.75;;;0.92;100.00
32033;BME280;31720;52.638;9.216;2023-01-29T08:03:28;102353.78;;;0.93;100.00
32033;BME280;31720;52.638;9.216;2023-01-29T08:06:30;102345.22;;;0.97;100.00
32033;BME280;31720;52.638;9.216;2023-01-29T08:09:32;102330.50;;;0.94;100.00
32033;BME280;31720;52.638;9.216;2023-01-29T08:12:34;102320.22;;;0.99;100.00
32033;BME280;31720;52.638;9.216;2023-01-29T08:15:35;102317.63;;;0.97;100.00
32033;BME280;31720;52.638;9.216;2023-01-29T08:18:37;102312.50;;;1.04;100.00
32033;BME280;31720;52.638;9.216;2023-01-29T08:21:38;102318.59;;;1.09;100.00
32033;BME280;31720;52.638;9.216;2023-01-29T08:24:41;102306.50;;;1.06;100.00
32033;BME280;31720;52.638;9.216;2023-01-29T08:27:42;102308.22;;;1.09;100.00
32033;BME280;31720;52.638;9.216;2023-01-29T08:30:43;102316.84;;;1.06;100.00
32033;BME280;31720;52.638;9.216;2023-01-29T08:33:45;102317.66;;;1.00;100.00
32033;BME280;31720;52.638;9.216;2023-01-29T08:36:47;102309.03;;;1.01;100.00
32033;BME280;31720;52.638;9.216;2023-01-29T08:39:49;102309.03;;;1.03;100.00
32033;BME280;31720;52.638;9.216;2023-01-29T08:42:50;102299.69;;;1.14;100.00
32033;BME280;31720;52.638;9.216;2023-01-29T08:45:52;102305.69;;;1.10;100.00
32033;BME280;31720;52.638;9.216;2023-01-29T08:48:53;102309.22;;;1.20;100.00
32033;BME280;31720;52.638;9.216;2023-01-29T08:51:55;102305.75;;;1.16;100.00
32033;BME280;31720;52.638;9.216;2023-01-29T08:54:57;102316.00;;;1.09;100.00
32033;BME280;31720;52.638;9.216;2023-01-29T08:57:59;102328.00;;;1.00;100.00
32033;BME280;31720;52.638;9.216;2023-01-29T09:01:07;102329.69;;;0.98;100.00
32033;BME280;31720;52.638;9.216;2023-01-29T09:04:08;102330.72;;;1.10;100.00
32033;BME280;31720;52.638;9.216;2023-01-29T09:07:10;102322.91;;;1.07;100.00
32033;BME280;31720;52.638;9.216;2023-01-29T09:10:13;102315.13;;;1.08;100.00
32033;BME280;31720;52.638;9.216;2023-01-29T09:13:14;102309.19;;;1.14;100.00
32033;BME280;31720;52.638;9.216;2023-01-29T09:16:15;102307.50;;;1.20;100.00
32033;BME280;31720;52.638;9.216;2023-01-29T09:19:16;102295.34;;;1.10;100.00
32033;BME280;31720;52.638;9.216;2023-01-29T09:22:18;102300.56;;;1.18;100.00
32033;BME280;31720;52.638;9.216;2023-01-29T09:25:20;102298.94;;;1.26;100.00
32033;BME280;31720;52.638;9.216;2023-01-29T09:28:22;102288.56;;;1.26;100.00
32033;BME280;31720;52.638;9.216;2023-01-29T09:31:23;102282.56;;;1.29;100.00
32033;BME280;31720;52.638;9.216;2023-01-29T09:34:24;102295.47;;;1.25;100.00
32033;BME280;31720;52.638;9.216;2023-01-29T09:37:26;102290.31;;;1.27;100.00
32033;BME280;31720;52.638;9.216;2023-01-29T09:40:32;102292.06;;;1.30;100.00
32033;BME280;31720;52.638;9.216;2023-01-29T09:43:42;102292.16;;;1.40;100.00
32033;BME280;31720;52.638;9.216;2023-01-29T09:46:46;102282.66;;;1.38;100.00
32033;BME280;31720;52.638;9.216;2023-01-29T09:49:51;102285.19;;;1.33;100.00
32033;BME280;31720;52.638;9.216;2023-01-29T09:52:55;102288.63;;;1.29;100.00
32033;BME280;31720;52.638;9.216;2023-01-29T09:56:03;102277.41;;;1.30;100.00
32033;BME280;31720;52.638;9.216;2023-01-29T09:59:04;102271.44;;;1.37;100.00
32033;BME280;31720;52.638;9.216;2023-01-29T10:02:09;102262.81;;;1.40;100.00
32033;BME280;31720;52.638;9.216;2023-01-29T10:05:24;102268.06;;;1.47;100.00
32033;BME280;31720;52.638;9.216;2023-01-29T10:08:44;102263.78;;;1.52;100.00
32033;BME280;31720;52.638;9.216;2023-01-29T10:11:58;102263.00;;;1.60;100.00
32033;BME280;31720;52.638;9.216;2023-01-29T10:15:05;102259.53;;;1.62;100.00
32033;BME280;31720;52.638;9.216;2023-01-29T10:22:03;102255.25;;;1.64;100.00
32033;BME280;31720;52.638;9.216;2023-01-29T10:25:10;102240.59;;;1.69;100.00
32033;BME280;31720;52.638;9.216;2023-01-29T10:28:17;102244.97;;;1.76;100.00
32033;BME280;31720;52.638;9.216;2023-01-29T10:31:23;102234.63;;;1.80;100.00
32033;BME280;31720;52.638;9.216;2023-01-29T10:34:30;102238.09;;;1.85;100.00
32033;BME280;31720;52.638;9.216;2023-01-29T10:37:36;102233.84;;;1.94;100.00
32033;BME280;31720;52.638;9.216;2023-01-29T10:40:44;102233.00;;;1.97;100.00
32033;BME280;31720;52.638;9.216;2023-01-29T10:43:58;102225.25;;;2.00;100.00
32033;BME280;31720;52.638;9.216;2023-01-29T10:47:30;102214.03;;;2.02;100.00
32033;BME280;31720;52.638;9.216;2023-01-29T10:50:46;102211.41;;;1.99;100.00
32033;BME280;31720;52.638;9.216;2023-01-29T10:53:56;102222.66;;;2.00;100.00
32033;BME280;31720;52.638;9.216;2023-01-29T10:57:09;102220.94;;;2.02;100.00
32033;BME280;31720;52.638;9.216;2023-01-29T11:00:19;102208.81;;;1.96;100.00
32033;BME280;31720;52.638;9.216;2023-01-29T11:03:22;102208.88;;;2.06;100.00
32033;BME280;31720;52.638;9.216;2023-01-29T11:06:29;102208.88;;;2.10;100.00
32033;BME280;31720;52.638;9.216;2023-01-29T11:09:34;102206.22;;;1.98;100.00
32033;BME280;31720;52.638;9.216;2023-01-29T11:12:36;102196.72;;;1.95;100.00
32033;BME280;31720;52.638;9.216;2023-01-29T11:15:40;102193.25;;;1.96;100.00
32033;BME280;31720;52.638;9.216;2023-01-29T11:18:53;102187.25;;;2.00;100.00
32033;BME280;31720;52.638;9.216;2023-01-29T11:21:56;102196.75;;;2.03;100.00
32033;BME280;31720;52.638;9.216;2023-01-29T11:25:09;102182.06;;;2.02;100.00
32033;BME280;31720;52.638;9.216;2023-01-29T11:28:34;102170.84;;;2.08;100.00
32033;BME280;31720;52.638;9.216;2023-01-29T11:31:37;102174.28;;;2.02;100.00
32033;BME280;31720;52.638;9.216;2023-01-29T11:34:57;102171.69;;;2.03;100.00
32033;BME280;31720;52.638;9.216;2023-01-29T11:38:07;102160.41;;;1.94;100.00
32033;BME280;31720;52.638;9.216;2023-01-29T11:41:14;102149.16;;;1.92;100.00
32033;BME280;31720;52.638;9.216;2023-01-29T11:44:19;102140.56;;;1.97;100.00
32033;BME280;31720;52.638;9.216;2023-01-29T11:47:25;102137.94;;;1.93;100.00
32033;BME280;31720;52.638;9.216;2023-01-29T11:50:29;102135.38;;;1.97;100.00
32033;BME280;31720;52.638;9.216;2023-01-29T11:53:36;102131.09;;;2.06;100.00
32033;BME280;31720;52.638;9.216;2023-01-29T11:56:40;102124.16;;;2.08;100.00
32033;BME280;31720;52.638;9.216;2023-01-29T11:59:45;102119.00;;;2.11;100.00
32033;BME280;31720;52.638;9.216;2023-01-29T12:02:54;102115.56;;;2.15;100.00
32033;BME280;31720;52.638;9.216;2023-01-29T12:05:58;102112.09;;;2.16;100.00
32033;BME280;31720;52.638;9.216;2023-01-29T12:09:09;102102.56;;;2.12;100.00
32033;BME280;31720;52.638;9.216;2023-01-29T12:12:17;102098.25;;;2.11;100.00
32033;BME280;31720;52.638;9.216;2023-01-29T12:15:27;102086.16;;;2.11;100.00
32033;BME280;31720;52.638;9.216;2023-01-29T12:18:35;102088.75;;;2.17;100.00
32033;BME280;31720;52.638;9.216;2023-01-29T12:21:43;102092.19;;;2.06;100.00
32033;BME280;31720;52.638;9.216;2023-01-29T12:24:51;102086.16;;;2.10;100.00
32033;BME280;31720;52.638;9.216;2023-01-29T12:27:58;102086.16;;;2.16;100.00
32033;BME280;31720;52.638;9.216;2023-01-29T12:31:10;102075.81;;;2.14;100.00
32033;BME280;31720;52.638;9.216;2023-01-29T12:34:18;102084.41;;;2.06;100.00
32033;BME280;31720;52.638;9.216;2023-01-29T12:37:24;102074.03;;;2.02;100.00
32033;BME280;31720;52.638;9.216;2023-01-29T12:40:31;102069.69;;;2.03;100.00
32033;BME280;31720;52.638;9.216;2023-01-29T12:43:37;102066.22;;;1.99;100.00
32033;BME280;31720;52.638;9.216;2023-01-29T12:46:45;102063.69;;;2.06;100.00
32033;BME280;31720;52.638;9.216;2023-01-29T12:49:54;102050.69;;;2.07;100.00
32033;BME280;31720;52.638;9.216;2023-01-29T12:52:59;102055.03;;;2.10;100.00
32033;BME280;31720;52.638;9.216;2023-01-29T12:56:08;102054.19;;;2.15;100.00
32033;BME280;31720;52.638;9.216;2023-01-29T12:59:15;102040.31;;;2.04;100.00
32033;BME280;31720;52.638;9.216;2023-01-29T13:02:26;102040.31;;;2.04;100.00
32033;BME280;31720;52.638;9.216;2023-01-29T13:05:36;102031.66;;;1.93;100.00
32033;BME280;31720;52.638;9.216;2023-01-29T13:08:41;102011.78;;;1.99;100.00
32033;BME280;31720;52.638;9.216;2023-01-29T13:11:50;102013.50;;;1.99;100.00
32033;BME280;31720;52.638;9.216;2023-01-29T13:14:53;102010.09;;;2.11;100.00
32033;BME280;31720;52.638;9.216;2023-01-29T13:17:58;102011.81;;;2.12;100.00
32033;BME280;31720;52.638;9.216;2023-01-29T13:21:04;101995.41;;;2.05;100.00
32033;BME280;31720;52.638;9.216;2023-01-29T13:24:11;101996.25;;;2.06;100.00
32033;BME280;31720;52.638;9.216;2023-01-29T13:27:20;101988.50;;;2.12;100.00
32033;BME280;31720;52.638;9.216;2023-01-29T13:30:24;101987.63;;;2.16;100.00
32033;BME280;31720;52.638;9.216;2023-01-29T13:33:25;101999.75;;;2.20;100.00
32033;BME280;31720;52.638;9.216;2023-01-29T13:36:29;101979.00;;;2.18;100.00
32033;BME280;31720;52.638;9.216;2023-01-29T13:39:33;101990.22;;;2.17;100.00
32033;BME280;31720;52.638;9.216;2023-01-29T13:42:41;101986.75;;;2.21;100.00
32033;BME280;31720;52.638;9.216;2023-01-29T13:45:44;101972.94;;;2.24;100.00
32033;BME280;31720;52.638;9.216;2023-01-29T13:48:48;101971.22;;;2.29;100.00
32033;BME280;31720;52.638;9.216;2023-01-29T13:51:52;101966.00;;;2.17;100.00
32033;BME280;31720;52.638;9.216;2023-01-29T13:54:56;101960.84;;;2.20;100.00
32033;BME280;31720;52.638;9.216;2023-01-29T13:57:59;101959.13;;;2.29;100.00
32033;BME280;31720;52.638;9.216;2023-01-29T14:01:01;101960.84;;;2.31;100.00
32033;BME280;31720;52.638;9.216;2023-01-29T14:04:19;101961.72;;;2.34;100.00
32033;BME280;31720;52.638;9.216;2023-01-29T14:07:48;101954.78;;;2.25;100.00
32033;BME280;31720;52.638;9.216;2023-01-29T14:11:27;101947.00;;;2.39;100.00
32033;BME280;31720;52.638;9.216;2023-01-29T14:14:58;101946.16;;;2.46;100.00
32033;BME280;31720;52.638;9.216;2023-01-29T14:18:22;101944.41;;;2.28;100.00
32033;BME280;31720;52.638;9.216;2023-01-29T14:21:27;101934.91;;;2.35;100.00
32033;BME280;31720;52.638;9.216;2023-01-29T14:24:32;101936.63;;;2.36;100.00
32033;BME280;31720;52.638;9.216;2023-01-29T14:27:34;101939.22;;;2.38;100.00
32033;BME280;31720;52.638;9.216;2023-01-29T14:30:38;101934.91;;;2.37;100.00
32033;BME280;31720;52.638;9.216;2023-01-29T14:33:40;101936.63;;;2.18;100.00
32033;BME280;31720;52.638;9.216;2023-01-29T14:36:43;101942.69;;;2.27;100.00
32033;BME280;31720;52.638;9.216;2023-01-29T14:39:48;101930.59;;;2.23;100.00
32033;BME280;31720;52.638;9.216;2023-01-29T14:42:56;101930.59;;;2.14;100.00
32033;BME280;31720;52.638;9.216;2023-01-29T14:49:52;101944.41;;;2.12;100.00
32033;BME280;31720;52.638;9.216;2023-01-29T14:52:58;101929.72;;;2.06;100.00
32033;BME280;31720;52.638;9.216;2023-01-29T14:56:08;101924.50;;;1.94;100.00
32033;BME280;31720;52.638;9.216;2023-01-29T14:59:15;101921.06;;;1.83;100.00
32033;BME280;31720;52.638;9.216;2023-01-29T15:02:19;101914.13;;;1.85;100.00
32033;BME280;31720;52.638;9.216;2023-01-29T15:05:25;101908.09;;;1.78;100.00
32033;BME280;31720;52.638;9.216;2023-01-29T15:08:36;101904.66;;;1.87;100.00
32033;BME280;31720;52.638;9.216;2023-01-29T15:11:48;101908.94;;;1.82;100.00
32033;BME280;31720;52.638;9.216;2023-01-29T15:15:00;101903.75;;;1.74;100.00
32033;BME280;31720;52.638;9.216;2023-01-29T15:18:06;101902.88;;;1.75;100.00
32033;BME280;31720;52.638;9.216;2023-01-29T15:21:10;101908.09;;;1.80;100.00
32033;BME280;31720;52.638;9.216;2023-01-29T15:24:12;101902.88;;;1.81;100.00
32033;BME280;31720;52.638;9.216;2023-01-29T15:27:17;101897.72;;;1.75;100.00
32033;BME280;31720;52.638;9.216;2023-01-29T15:30:22;101897.72;;;1.75;100.00
32033;BME280;31720;52.638;9.216;2023-01-29T15:33:26;101889.91;;;1.63;100.00
32033;BME280;31720;52.638;9.216;2023-01-29T15:36:30;101879.56;;;1.69;100.00
32033;BME280;31720;52.638;9.216;2023-01-29T15:39:41;101877.84;;;1.74;100.00
32033;BME280;31720;52.638;9.216;2023-01-29T15:42:45;101871.81;;;1.78;100.00
32033;BME280;31720;52.638;9.216;2023-01-29T15:45:48;101869.19;;;1.75;100.00
32033;BME280;31720;52.638;9.216;2023-01-29T15:48:50;101866.63;;;1.84;100.00
32033;BME280;31720;52.638;9.216;2023-01-29T15:51:54;101857.13;;;1.83;100.00
32033;BME280;31720;52.638;9.216;2023-01-29T15:55:02;101857.09;;;1.72;100.00
32033;BME280;31720;52.638;9.216;2023-01-29T15:58:06;101844.16;;;1.80;100.00
32033;BME280;31720;52.638;9.216;2023-01-29T16:01:12;101853.66;;;1.78;100.00
32033;BME280;31720;52.638;9.216;2023-01-29T16:04:17;101836.38;;;1.69;100.00
32033;BME280;31720;52.638;9.216;2023-01-29T16:07:20;101841.53;;;1.68;100.00
32033;BME280;31720;52.638;9.216;2023-01-29T16:10:23;101854.50;;;1.66;100.00
32033;BME280;31720;52.638;9.216;2023-01-29T16:13:29;101846.72;;;1.59;100.00
32033;BME280;31720;52.638;9.216;2023-01-29T16:16:30;101841.53;;;1.52;100.00
32033;BME280;31720;52.638;9.216;2023-01-29T16:19:32;101845.00;;;1.56;100.00
32033;BME280;31720;52.638;9.216;2023-01-29T16:22:35;101834.66;;;1.55;100.00